sensor_id;sensor_type;location;lat;lon;timestamp;noise_LAeq;noise_LA_min;noise_LA_max;noise_LA01;noise_LA95
48148;Laerm;29352;48.708;9.290;2022-12-07T00:01:41;52.08;50.89;53.19;;
48148;Laerm;29352;48.708;9.290;2022-12-07T00:04:12;52.07;50.98;53.14;;
48148;Laerm;29352;48.708;9.290;2022-12-07T00:06:44;52.12;50.80;53.09;;
48148;Laerm;29352;48.708;9.290;2022-12-07T00:09:14;52.13;50.80;53.29;;
48148;Laerm;29352;48.708;9.290;2022-12-07T00:11:41;52.13;50.89;53.29;;
48148;Laerm;29352;48.708;9.290;2022-12-07T00:14:12;52.10;50.80;53.09;;
48148;Laerm;29352;48.708;9.290;2022-12-07T00:16:38;52.10;50.71;53.14;;
48148;Laerm;29352;48.708;9.290;2022-12-07T00:19:04;52.10;51.06;52.98;;
48148;Laerm;29352;48.708;9.290;2022-12-07T00:21:34;52.07;50.71;53.09;;
48148;Laerm;29352;48.708;9.290;2022-12-07T00:24:01;52.05;50.71;53.09;;
48148;Laerm;29352;48.708;9.290;2022-12-07T00:26:34;52.06;50.80;53.14;;
48148;Laerm;29352;48.708;9.290;2022-12-07T00:29:07;52.11;50.53;53.24;;
48148;Laerm;29352;48.708;9.290;2022-12-07T00:31:36;52.14;50.80;53.19;;
48148;Laerm;29352;48.708;9.290;2022-12-07T00:34:11;52.18;50.89;53.49;;
48148;Laerm;29352;48.708;9.290;2022-12-07T00:36:38;52.22;50.98;53.24;;
48148;Laerm;29352;48.708;9.290;2022-12-07T00:39:03;52.24;50.98;53.24;;
48148;Laerm;29352;48.708;9.290;2022-12-07T00:41:30;52.26;50.98;53.39;;
48148;Laerm;29352;48.708;9.290;2022-12-07T00:43:56;52.22;50.96;53.19;;
48148;Laerm;29352;48.708;9.290;2022-12-07T00:46:24;52.21;51.06;53.24;;
48148;Laerm;29352;48.708;9.290;2022-12-07T00:48:51;52.21;50.89;53.24;;
48148;Laerm;29352;48.708;9.290;2022-12-07T00:51:20;52.21;51.14;53.29;;
48148;Laerm;29352;48.708;9.290;2022-12-07T00:53:47;52.21;50.89;53.19;;
48148;Laerm;29352;48.708;9.290;2022-12-07T00:56:17;52.21;51.06;53.14;;
48148;Laerm;29352;48.708;9.290;2022-12-07T00:58:43;52.20;50.89;53.39;;
48148;Laerm;29352;48.708;9.290;2022-12-07T01:01:10;52.22;50.89;53.24;;
48148;Laerm;29352;48.708;9.290;2022-12-07T01:03:37;52.19;50.98;53.39;;
48148;Laerm;29352;48.708;9.290;2022-12-07T01:06:03;52.19;51.06;53.19;;
48148;Laerm;29352;48.708;9.290;2022-12-07T01:08:29;52.18;51.06;53.14;;
48148;Laerm;29352;48.708;9.290;2022-12-07T01:11:01;52.16;50.98;53.24;;
48148;Laerm;29352;48.708;9.290;2022-12-07T01:13:28;52.15;51.06;53.24;;
48148;Laerm;29352;48.708;9.290;2022-12-07T01:16:02;52.16;50.89;53.14;;
48148;Laerm;29352;48.708;9.290;2022-12-07T01:18:30;52.15;50.98;54.83;;
48148;Laerm;29352;48.708;9.290;2022-12-07T01:21:22;52.18;51.06;53.24;;
48148;Laerm;29352;48.708;9.290;2022-12-07T01:23:49;52.21;50.89;53.19;;
48148;Laerm;29352;48.708;9.290;2022-12-07T01:26:20;52.23;51.06;53.24;;
48148;Laerm;29352;48.708;9.290;2022-12-07T01:28:46;52.22;50.89;53.19;;
48148;Laerm;29352;48.708;9.290;2022-12-07T01:31:19;52.22;51.06;53.24;;
48148;Laerm;29352;48.708;9.290;2022-12-07T01:33:52;52.25;51.06;53.34;;
48148;Laerm;29352;48.708;9.290;2022-12-07T01:36:33;52.31;51.03;53.34;;
48148;Laerm;29352;48.708;9.290;2022-12-07T01:39:04;52.29;50.98;53.29;;
48148;Laerm;29352;48.708;9.290;2022-12-07T01:41:36;52.33;51.06;53.44;;
48148;Laerm;29352;48.708;9.290;2022-12-07T01:44:23;52.37;51.14;53.46;;
48148;Laerm;29352;48.708;9.290;2022-12-07T01:46:59;52.37;51.30;53.63;;
48148;Laerm;29352;48.708;9.290;2022-12-07T01:49:37;52.36;51.14;53.34;;
48148;Laerm;29352;48.708;9.290;2022-12-07T01:52:33;52.34;50.98;53.24;;
48148;Laerm;29352;48.708;9.290;2022-12-07T01:55:07;52.32;51.22;53.49;;
48148;Laerm;29352;48.708;9.290;2022-12-07T01:57:41;52.33;51.30;53.24;;
48148;Laerm;29352;48.708;9.290;2022-12-07T02:00:13;52.33;51.22;53.34;;
48148;Laerm;29352;48.708;9.290;2022-12-07T02:03:13;52.33;51.06;53.34;;
48148;Laerm;29352;48.708;9.290;2022-12-07T02:05:43;52.36;51.06;53.34;;
48148;Laerm;29352;48.708;9.290;2022-12-07T02:08:11;52.36;51.30;53.44;;
48148;Laerm;29352;48.708;9.290;2022-12-07T02:10:37;52.36;51.30;53.39;;
48148;Laerm;29352;48.708;9.290;2022-12-07T02:18:55;52.24;51.06;53.34;;
48148;Laerm;29352;48.708;9.290;2022-12-07T02:27:49;52.15;50.89;53.14;;
48148;Laerm;29352;48.708;9.290;2022-12-07T02:30:21;52.10;50.80;53.09;;
48148;Laerm;29352;48.708;9.290;2022-12-07T02:32:53;52.08;50.80;53.29;;
48148;Laerm;29352;48.708;9.290;2022-12-07T02:35:39;52.05;50.71;53.19;;
48148;Laerm;29352;48.708;9.290;2022-12-07T02:38:27;52.02;50.71;53.09;;
48148;Laerm;29352;48.708;9.290;2022-12-07T02:41:04;52.00;50.80;53.09;;
48148;Laerm;29352;48.708;9.290;2022-12-07T02:43:44;51.99;50.71;53.14;;
48148;Laerm;29352;48.708;9.290;2022-12-07T02:46:18;51.99;50.62;53.09;;
48148;Laerm;29352;48.708;9.290;2022-12-07T02:48:47;52.01;50.71;53.19;;
48148;Laerm;29352;48.708;9.290;2022-12-07T02:51:13;52.10;50.89;53.09;;
48148;Laerm;29352;48.708;9.290;2022-12-07T02:53:42;52.16;51.06;53.34;;
48148;Laerm;29352;48.708;9.290;2022-12-07T02:56:46;52.24;51.06;53.24;;
48148;Laerm;29352;48.708;9.290;2022-12-07T03:02:35;52.35;51.22;53.44;;
48148;Laerm;29352;48.708;9.290;2022-12-07T03:05:35;52.39;51.26;53.44;;
48148;Laerm;29352;48.708;9.290;2022-12-07T03:08:29;52.41;51.22;53.44;;
48148;Laerm;29352;48.708;9.290;2022-12-07T03:11:07;52.39;51.14;53.34;;
48148;Laerm;29352;48.708;9.290;2022-12-07T03:14:26;52.36;51.14;53.29;;
48148;Laerm;29352;48.708;9.290;2022-12-07T03:17:09;52.37;51.30;53.54;;
48148;Laerm;29352;48.708;9.290;2022-12-07T03:19:42;52.36;51.22;53.34;;
48148;Laerm;29352;48.708;9.290;2022-12-07T03:22:13;52.29;50.98;53.24;;
48148;Laerm;29352;48.708;9.290;2022-12-07T03:24:49;52.22;51.06;53.34;;
48148;Laerm;29352;48.708;9.290;2022-12-07T03:27:42;52.16;51.06;53.29;;
48148;Laerm;29352;48.708;9.290;2022-12-07T03:30:19;52.18;50.89;53.14;;
48148;Laerm;29352;48.708;9.290;2022-12-07T03:33:10;52.31;51.22;53.34;;
48148;Laerm;29352;48.708;9.290;2022-12-07T03:35:52;52.31;51.22;53.44;;
48148;Laerm;29352;48.708;9.290;2022-12-07T03:38:52;52.31;51.14;53.49;;
48148;Laerm;29352;48.708;9.290;2022-12-07T03:41:27;52.31;51.22;53.29;;
48148;Laerm;29352;48.708;9.290;2022-12-07T03:43:56;52.26;51.14;53.24;;
48148;Laerm;29352;48.708;9.290;2022-12-07T03:46:52;52.29;51.22;53.29;;
48148;Laerm;29352;48.708;9.290;2022-12-07T03:49:31;52.28;50.89;53.24;;
48148;Laerm;29352;48.708;9.290;2022-12-07T03:52:39;52.29;51.06;53.29;;
48148;Laerm;29352;48.708;9.290;2022-12-07T03:57:55;52.31;51.22;53.29;;
48148;Laerm;29352;48.708;9.290;2022-12-07T04:00:22;52.29;51.06;53.29;;
48148;Laerm;29352;48.708;9.290;2022-12-07T04:02:52;52.27;51.14;53.24;;
48148;Laerm;29352;48.708;9.290;2022-12-07T04:05:18;52.26;51.06;53.44;;
48148;Laerm;29352;48.708;9.290;2022-12-07T04:07:44;52.25;51.06;53.29;;
48148;Laerm;29352;48.708;9.290;2022-12-07T04:10:11;52.17;50.89;53.49;;
48148;Laerm;29352;48.708;9.290;2022-12-07T04:12:36;52.11;51.06;53.14;;
48148;Laerm;29352;48.708;9.290;2022-12-07T04:15:04;52.07;50.80;53.14;;
48148;Laerm;29352;48.708;9.290;2022-12-07T04:17:29;52.09;50.71;53.09;;
48148;Laerm;29352;48.708;9.290;2022-12-07T04:19:55;52.16;50.71;53.19;;
48148;Laerm;29352;48.708;9.290;2022-12-07T04:22:20;52.15;50.89;53.29;;
48148;Laerm;29352;48.708;9.290;2022-12-07T04:24:46;52.13;50.98;53.09;;
48148;Laerm;29352;48.708;9.290;2022-12-07T04:27:11;52.10;50.98;53.14;;
48148;Laerm;29352;48.708;9.290;2022-12-07T04:29:37;52.11;50.98;53.19;;
48148;Laerm;29352;48.708;9.290;2022-12-07T04:32:03;52.08;50.98;53.14;;
48148;Laerm;29352;48.708;9.290;2022-12-07T04:34:28;52.05;50.89;53.19;;
48148;Laerm;29352;48.708;9.290;2022-12-07T04:36:54;52.05;50.80;53.29;;
48148;Laerm;29352;48.708;9.290;2022-12-07T04:39:29;52.01;50.71;53.19;;
48148;Laerm;29352;48.708;9.290;2022-12-07T04:41:57;51.97;50.80;53.19;;
48148;Laerm;29352;48.708;9.290;2022-12-07T04:44:25;51.96;50.89;53.04;;
48148;Laerm;29352;48.708;9.290;2022-12-07T04:46:52;51.94;50.53;52.93;;
48148;Laerm;29352;48.708;9.290;2022-12-07T04:49:19;51.89;50.62;52.93;;
48148;Laerm;29352;48.708;9.290;2022-12-07T04:51:46;51.79;50.53;52.98;;
48148;Laerm;29352;48.708;9.290;2022-12-07T04:54:13;51.82;50.43;71.67;;
48148;Laerm;29352;48.708;9.290;2022-12-07T04:56:39;51.67;50.33;52.76;;
48148;Laerm;29352;48.708;9.290;2022-12-07T04:59:05;51.70;50.53;52.93;;
48148;Laerm;29352;48.708;9.290;2022-12-07T05:01:33;51.68;50.33;52.88;;
48148;Laerm;29352;48.708;9.290;2022-12-07T05:03:58;51.74;50.53;52.98;;
48148;Laerm;29352;48.708;9.290;2022-12-07T05:06:24;51.72;50.33;52.93;;
48148;Laerm;29352;48.708;9.290;2022-12-07T05:08:50;51.74;50.08;52.93;;
48148;Laerm;29352;48.708;9.290;2022-12-07T05:11:16;51.78;50.13;52.88;;
48148;Laerm;29352;48.708;9.290;2022-12-07T05:14:03;51.83;50.43;52.93;;
48148;Laerm;29352;48.708;9.290;2022-12-07T05:16:29;51.97;50.88;54.27;;
48148;Laerm;29352;48.708;9.290;2022-12-07T05:18:54;52.10;50.89;53.09;;
48148;Laerm;29352;48.708;9.290;2022-12-07T05:21:20;52.01;50.98;53.14;;
48148;Laerm;29352;48.708;9.290;2022-12-07T05:23:46;51.92;50.80;53.09;;
48148;Laerm;29352;48.708;9.290;2022-12-07T05:26:11;51.91;50.62;52.98;;
48148;Laerm;29352;48.708;9.290;2022-12-07T05:28:37;51.92;50.80;52.93;;
48148;Laerm;29352;48.708;9.290;2022-12-07T05:31:03;51.93;50.71;52.93;;
48148;Laerm;29352;48.708;9.290;2022-12-07T05:33:28;51.96;50.62;53.14;;
48148;Laerm;29352;48.708;9.290;2022-12-07T05:35:54;51.92;50.53;53.09;;
48148;Laerm;29352;48.708;9.290;2022-12-07T05:38:19;51.86;50.71;53.14;;
48148;Laerm;29352;48.708;9.290;2022-12-07T05:40:45;51.82;50.43;53.00;;
48148;Laerm;29352;48.708;9.290;2022-12-07T05:43:10;51.81;50.43;53.24;;
48148;Laerm;29352;48.708;9.290;2022-12-07T05:45:36;51.80;50.43;52.88;;
48148;Laerm;29352;48.708;9.290;2022-12-07T05:48:02;51.82;50.43;53.14;;
48148;Laerm;29352;48.708;9.290;2022-12-07T05:50:28;51.82;50.62;52.88;;
48148;Laerm;29352;48.708;9.290;2022-12-07T05:52:54;51.82;50.53;53.34;;
48148;Laerm;29352;48.708;9.290;2022-12-07T05:55:19;51.82;50.62;52.93;;
48148;Laerm;29352;48.708;9.290;2022-12-07T05:57:45;51.78;50.53;52.76;;
48148;Laerm;29352;48.708;9.290;2022-12-07T06:00:31;51.76;50.53;52.93;;
48148;Laerm;29352;48.708;9.290;2022-12-07T06:02:57;51.71;50.43;52.82;;
48148;Laerm;29352;48.708;9.290;2022-12-07T06:05:22;51.70;50.13;52.76;;
48148;Laerm;29352;48.708;9.290;2022-12-07T06:07:49;51.69;50.03;53.14;;
48148;Laerm;29352;48.708;9.290;2022-12-07T06:10:15;51.63;50.23;52.82;;
48148;Laerm;29352;48.708;9.290;2022-12-07T06:12:40;51.56;50.03;52.82;;
48148;Laerm;29352;48.708;9.290;2022-12-07T06:15:09;51.55;50.13;52.90;;
48148;Laerm;29352;48.708;9.290;2022-12-07T06:17:36;51.52;50.08;56.18;;
48148;Laerm;29352;48.708;9.290;2022-12-07T06:20:02;51.52;49.70;52.88;;
48148;Laerm;29352;48.708;9.290;2022-12-07T06:22:28;51.67;50.13;52.93;;
48148;Laerm;29352;48.708;9.290;2022-12-07T06:24:53;51.65;50.13;53.49;;
48148;Laerm;29352;48.708;9.290;2022-12-07T06:27:19;51.63;49.92;52.98;;
48148;Laerm;29352;48.708;9.290;2022-12-07T06:29:44;51.70;50.13;55.17;;
48148;Laerm;29352;48.708;9.290;2022-12-07T06:32:10;51.60;50.13;52.82;;
48148;Laerm;29352;48.708;9.290;2022-12-07T06:34:35;51.60;50.13;53.94;;
48148;Laerm;29352;48.708;9.290;2022-12-07T06:37:01;51.60;50.13;55.17;;
48148;Laerm;29352;48.708;9.290;2022-12-07T06:39:28;51.55;50.23;53.05;;
48148;Laerm;29352;48.708;9.290;2022-12-07T06:41:55;51.59;50.23;52.88;;
48148;Laerm;29352;48.708;9.290;2022-12-07T06:44:22;51.62;50.33;52.88;;
48148;Laerm;29352;48.708;9.290;2022-12-07T06:46:50;51.66;50.13;52.76;;
48148;Laerm;29352;48.708;9.290;2022-12-07T06:49:15;51.62;50.33;54.94;;
48148;Laerm;29352;48.708;9.290;2022-12-07T06:51:42;51.60;50.23;52.98;;
48148;Laerm;29352;48.708;9.290;2022-12-07T06:54:12;51.58;50.23;52.76;;
48148;Laerm;29352;48.708;9.290;2022-12-07T06:56:38;51.62;50.23;53.34;;
48148;Laerm;29352;48.708;9.290;2022-12-07T06:59:06;51.59;50.33;52.88;;
48148;Laerm;29352;48.708;9.290;2022-12-07T07:01:34;51.61;50.23;52.88;;
48148;Laerm;29352;48.708;9.290;2022-12-07T07:04:00;51.64;50.33;52.82;;
48148;Laerm;29352;48.708;9.290;2022-12-07T07:06:25;51.68;50.33;52.82;;
48148;Laerm;29352;48.708;9.290;2022-12-07T07:08:51;51.72;50.23;52.88;;
48148;Laerm;29352;48.708;9.290;2022-12-07T07:11:17;51.72;50.13;52.76;;
48148;Laerm;29352;48.708;9.290;2022-12-07T07:13:42;51.70;50.03;53.54;;
48148;Laerm;29352;48.708;9.290;2022-12-07T07:16:08;51.68;50.33;52.98;;
48148;Laerm;29352;48.708;9.290;2022-12-07T07:18:34;51.72;50.43;52.82;;
48148;Laerm;29352;48.708;9.290;2022-12-07T07:21:00;51.99;50.43;53.14;;
48148;Laerm;29352;48.708;9.290;2022-12-07T07:23:26;52.12;50.89;53.19;;
48148;Laerm;29352;48.708;9.290;2022-12-07T07:25:52;52.10;50.71;53.39;;
48148;Laerm;29352;48.708;9.290;2022-12-07T07:28:18;52.08;50.89;53.04;;
48148;Laerm;29352;48.708;9.290;2022-12-07T07:30:44;52.28;50.89;53.29;;
48148;Laerm;29352;48.708;9.290;2022-12-07T07:33:11;52.42;51.06;53.63;;
48148;Laerm;29352;48.708;9.290;2022-12-07T07:35:37;52.55;51.48;53.63;;
48148;Laerm;29352;48.708;9.290;2022-12-07T07:38:04;52.64;51.38;53.54;;
48148;Laerm;29352;48.708;9.290;2022-12-07T07:40:30;52.60;51.46;53.68;;
48148;Laerm;29352;48.708;9.290;2022-12-07T07:42:57;52.63;51.53;53.58;;
48148;Laerm;29352;48.708;9.290;2022-12-07T07:45:26;52.70;51.38;53.58;;
48148;Laerm;29352;48.708;9.290;2022-12-07T07:47:52;52.73;51.38;53.72;;
48148;Laerm;29352;48.708;9.290;2022-12-07T07:50:19;52.82;51.68;53.72;;
48148;Laerm;29352;48.708;9.290;2022-12-07T07:52:45;52.84;51.68;53.77;;
48148;Laerm;29352;48.708;9.290;2022-12-07T07:55:11;52.86;51.82;53.81;;
48148;Laerm;29352;48.708;9.290;2022-12-07T07:57:42;52.85;51.68;53.77;;
48148;Laerm;29352;48.708;9.290;2022-12-07T08:00:13;52.87;51.68;53.77;;
48148;Laerm;29352;48.708;9.290;2022-12-07T08:02:41;52.84;51.68;53.86;;
48148;Laerm;29352;48.708;9.290;2022-12-07T08:05:08;52.84;51.82;53.86;;
48148;Laerm;29352;48.708;9.290;2022-12-07T08:07:33;52.83;51.61;53.86;;
48148;Laerm;29352;48.708;9.290;2022-12-07T08:09:59;52.85;51.82;53.99;;
48148;Laerm;29352;48.708;9.290;2022-12-07T08:12:24;52.82;51.75;53.81;;
48148;Laerm;29352;48.708;9.290;2022-12-07T08:14:50;52.89;51.68;53.86;;
48148;Laerm;29352;48.708;9.290;2022-12-07T08:17:15;52.93;51.89;53.99;;
48148;Laerm;29352;48.708;9.290;2022-12-07T08:19:41;52.98;51.89;53.90;;
48148;Laerm;29352;48.708;9.290;2022-12-07T08:22:06;53.02;51.96;53.99;;
48148;Laerm;29352;48.708;9.290;2022-12-07T08:24:35;53.00;51.82;54.11;;
48148;Laerm;29352;48.708;9.290;2022-12-07T08:27:01;53.08;52.03;54.03;;
48148;Laerm;29352;48.708;9.290;2022-12-07T08:29:26;53.14;51.89;54.07;;
48148;Laerm;29352;48.708;9.290;2022-12-07T08:31:52;53.13;52.16;54.11;;
48148;Laerm;29352;48.708;9.290;2022-12-07T08:34:18;53.17;52.16;54.23;;
48148;Laerm;29352;48.708;9.290;2022-12-07T08:36:43;53.17;52.09;54.03;;
48148;Laerm;29352;48.708;9.290;2022-12-07T08:39:09;53.19;51.89;54.07;;
48148;Laerm;29352;48.708;9.290;2022-12-07T08:41:34;53.18;52.16;54.15;;
48148;Laerm;29352;48.708;9.290;2022-12-07T08:44:00;53.26;52.00;54.19;;
48148;Laerm;29352;48.708;9.290;2022-12-07T08:46:56;53.39;52.29;54.31;;
48148;Laerm;29352;48.708;9.290;2022-12-07T08:49:36;53.37;52.41;54.31;;
48148;Laerm;29352;48.708;9.290;2022-12-07T08:52:05;53.40;52.16;54.35;;
48148;Laerm;29352;48.708;9.290;2022-12-07T08:54:36;53.50;52.29;59.03;;
48148;Laerm;29352;48.708;9.290;2022-12-07T08:57:04;53.52;52.35;62.56;;
48148;Laerm;29352;48.708;9.290;2022-12-07T08:59:35;53.86;52.59;77.68;;
48148;Laerm;29352;48.708;9.290;2022-12-07T09:02:03;53.61;52.53;54.69;;
48148;Laerm;29352;48.708;9.290;2022-12-07T09:04:28;53.69;52.65;55.20;;
48148;Laerm;29352;48.708;9.290;2022-12-07T09:06:55;53.73;52.71;54.83;;
48148;Laerm;29352;48.708;9.290;2022-12-07T09:09:21;53.79;52.82;55.14;;
48148;Laerm;29352;48.708;9.290;2022-12-07T09:11:47;53.85;52.82;55.42;;
48148;Laerm;29352;48.708;9.290;2022-12-07T09:14:13;53.85;52.65;55.33;;
48148;Laerm;29352;48.708;9.290;2022-12-07T09:16:39;53.85;52.82;54.90;;
48148;Laerm;29352;48.708;9.290;2022-12-07T09:19:05;53.84;52.35;55.01;;
48148;Laerm;29352;48.708;9.290;2022-12-07T09:21:30;53.87;52.59;54.94;;
48148;Laerm;29352;48.708;9.290;2022-12-07T09:23:56;53.85;52.76;55.39;;
48148;Laerm;29352;48.708;9.290;2022-12-07T09:26:22;53.85;52.53;54.80;;
48148;Laerm;29352;48.708;9.290;2022-12-07T09:28:47;53.87;52.76;55.14;;
48148;Laerm;29352;48.708;9.290;2022-12-07T09:31:13;53.89;52.71;55.17;;
48148;Laerm;29352;48.708;9.290;2022-12-07T09:33:38;53.88;52.71;57.38;;
48148;Laerm;29352;48.708;9.290;2022-12-07T09:36:04;53.96;52.76;57.83;;
48148;Laerm;29352;48.708;9.290;2022-12-07T09:38:30;53.96;52.59;59.06;;
48148;Laerm;29352;48.708;9.290;2022-12-07T09:41:04;53.90;52.76;55.04;;
48148;Laerm;29352;48.708;9.290;2022-12-07T09:43:30;53.90;52.76;54.90;;
48148;Laerm;29352;48.708;9.290;2022-12-07T09:45:57;53.91;52.65;54.83;;
48148;Laerm;29352;48.708;9.290;2022-12-07T09:48:38;53.92;52.76;54.87;;
48148;Laerm;29352;48.708;9.290;2022-12-07T09:51:21;53.92;52.76;55.04;;
48148;Laerm;29352;48.708;9.290;2022-12-07T09:53:49;53.92;52.82;55.04;;
48148;Laerm;29352;48.708;9.290;2022-12-07T09:56:19;53.92;52.88;54.90;;
48148;Laerm;29352;48.708;9.290;2022-12-07T09:58:46;53.92;52.71;55.01;;
48148;Laerm;29352;48.708;9.290;2022-12-07T10:01:17;53.91;52.71;55.04;;
48148;Laerm;29352;48.708;9.290;2022-12-07T10:04:00;53.90;52.76;54.87;;
48148;Laerm;29352;48.708;9.290;2022-12-07T10:06:27;53.91;52.93;54.87;;
48148;Laerm;29352;48.708;9.290;2022-12-07T10:08:52;53.91;52.65;54.87;;
48148;Laerm;29352;48.708;9.290;2022-12-07T10:11:18;53.91;52.82;54.90;;
48148;Laerm;29352;48.708;9.290;2022-12-07T10:13:47;53.92;52.93;54.90;;
48148;Laerm;29352;48.708;9.290;2022-12-07T10:16:40;53.91;52.65;55.01;;
48148;Laerm;29352;48.708;9.290;2022-12-07T10:19:27;53.93;52.76;55.36;;
48148;Laerm;29352;48.708;9.290;2022-12-07T10:22:09;53.90;52.88;54.94;;
48148;Laerm;29352;48.708;9.290;2022-12-07T10:24:38;53.88;52.53;54.94;;
48148;Laerm;29352;48.708;9.290;2022-12-07T10:27:05;53.86;52.53;55.07;;
48148;Laerm;29352;48.708;9.290;2022-12-07T10:29:38;53.86;52.76;54.83;;
48148;Laerm;29352;48.708;9.290;2022-12-07T10:35:24;53.86;52.71;54.80;;
48148;Laerm;29352;48.708;9.290;2022-12-07T10:37:52;53.88;52.88;54.90;;
48148;Laerm;29352;48.708;9.290;2022-12-07T10:40:36;53.86;52.64;55.14;;
48148;Laerm;29352;48.708;9.290;2022-12-07T10:57:26;53.83;52.76;54.83;;
48148;Laerm;29352;48.708;9.290;2022-12-07T11:00:22;53.83;52.53;55.11;;
48148;Laerm;29352;48.708;9.290;2022-12-07T11:11:18;53.81;52.65;54.83;;
48148;Laerm;29352;48.708;9.290;2022-12-07T11:14:01;53.82;52.59;54.87;;
48148;Laerm;29352;48.708;9.290;2022-12-07T11:16:45;53.82;52.65;54.80;;
48148;Laerm;29352;48.708;9.290;2022-12-07T11:22:09;53.81;52.88;54.83;;
48148;Laerm;29352;48.708;9.290;2022-12-07T11:25:00;53.81;52.35;54.90;;
48148;Laerm;29352;48.708;9.290;2022-12-07T11:27:48;53.82;52.76;54.87;;
48148;Laerm;29352;48.708;9.290;2022-12-07T11:30:34;53.82;52.65;54.80;;
48148;Laerm;29352;48.708;9.290;2022-12-07T11:33:20;53.81;52.65;54.94;;
48148;Laerm;29352;48.708;9.290;2022-12-07T11:38:46;53.81;52.76;54.87;;
48148;Laerm;29352;48.708;9.290;2022-12-07T11:41:25;53.81;52.71;54.83;;
48148;Laerm;29352;48.708;9.290;2022-12-07T11:44:00;53.81;52.71;54.97;;
48148;Laerm;29352;48.708;9.290;2022-12-07T11:46:47;53.81;52.47;54.83;;
48148;Laerm;29352;48.708;9.290;2022-12-07T11:51:58;53.81;52.76;54.83;;
48148;Laerm;29352;48.708;9.290;2022-12-07T11:54:40;53.80;52.65;54.90;;
48148;Laerm;29352;48.708;9.290;2022-12-07T11:57:44;53.81;52.76;54.76;;
48148;Laerm;29352;48.708;9.290;2022-12-07T12:00:17;53.81;52.65;54.80;;
48148;Laerm;29352;48.708;9.290;2022-12-07T12:02:56;53.79;52.71;54.76;;
48148;Laerm;29352;48.708;9.290;2022-12-07T12:05:25;53.79;52.76;54.87;;
48148;Laerm;29352;48.708;9.290;2022-12-07T12:11:24;53.79;52.71;54.79;;
48148;Laerm;29352;48.708;9.290;2022-12-07T12:20:03;53.78;52.76;54.83;;
48148;Laerm;29352;48.708;9.290;2022-12-07T12:22:43;53.78;52.41;54.83;;
48148;Laerm;29352;48.708;9.290;2022-12-07T12:25:34;53.79;52.71;54.87;;
48148;Laerm;29352;48.708;9.290;2022-12-07T12:28:02;53.79;52.53;54.87;;
48148;Laerm;29352;48.708;9.290;2022-12-07T12:30:40;53.79;52.71;54.80;;
48148;Laerm;29352;48.708;9.290;2022-12-07T12:33:25;53.80;52.65;54.76;;
48148;Laerm;29352;48.708;9.290;2022-12-07T12:49:30;53.80;52.82;54.65;;
48148;Laerm;29352;48.708;9.290;2022-12-07T12:57:36;53.87;52.71;54.97;;
48148;Laerm;29352;48.708;9.290;2022-12-07T13:00:22;53.89;52.88;55.04;;
48148;Laerm;29352;48.708;9.290;2022-12-07T13:02:58;53.91;52.93;54.97;;
48148;Laerm;29352;48.708;9.290;2022-12-07T13:05:30;53.91;52.76;54.83;;
48148;Laerm;29352;48.708;9.290;2022-12-07T13:08:18;53.92;52.88;54.94;;
48148;Laerm;29352;48.708;9.290;2022-12-07T13:10:47;53.93;52.93;54.94;;
48148;Laerm;29352;48.708;9.290;2022-12-07T13:15:50;53.92;52.82;55.30;;
48148;Laerm;29352;48.708;9.290;2022-12-07T13:24:00;53.88;52.82;55.01;;
48148;Laerm;29352;48.708;9.290;2022-12-07T13:29:18;53.86;52.93;54.94;;
48148;Laerm;29352;48.708;9.290;2022-12-07T13:31:55;53.84;52.76;55.04;;
48148;Laerm;29352;48.708;9.290;2022-12-07T13:34:38;53.82;52.71;54.90;;
48148;Laerm;29352;48.708;9.290;2022-12-07T13:37:28;53.77;52.76;54.73;;
48148;Laerm;29352;48.708;9.290;2022-12-07T13:40:01;53.75;52.41;54.76;;
48148;Laerm;29352;48.708;9.290;2022-12-07T13:42:40;53.74;52.59;54.80;;
48148;Laerm;29352;48.708;9.290;2022-12-07T13:45:42;53.74;52.59;54.69;;
48148;Laerm;29352;48.708;9.290;2022-12-07T13:48:43;53.75;52.65;54.80;;
48148;Laerm;29352;48.708;9.290;2022-12-07T13:54:11;53.77;52.65;54.90;;
48148;Laerm;29352;48.708;9.290;2022-12-07T13:56:37;53.76;52.41;54.80;;
48148;Laerm;29352;48.708;9.290;2022-12-07T13:59:25;53.77;52.76;54.65;;
48148;Laerm;29352;48.708;9.290;2022-12-07T14:01:53;53.78;52.76;55.20;;
48148;Laerm;29352;48.708;9.290;2022-12-07T14:07:01;53.79;52.65;54.73;;
48148;Laerm;29352;48.708;9.290;2022-12-07T14:10:02;53.80;52.71;54.90;;
48148;Laerm;29352;48.708;9.290;2022-12-07T14:12:31;53.81;52.47;54.97;;
48148;Laerm;29352;48.708;9.290;2022-12-07T14:14:59;53.82;52.76;54.80;;
48148;Laerm;29352;48.708;9.290;2022-12-07T14:17:27;53.81;52.76;54.87;;
48148;Laerm;29352;48.708;9.290;2022-12-07T14:19:59;53.82;52.82;54.90;;
48148;Laerm;29352;48.708;9.290;2022-12-07T14:22:36;53.82;52.71;54.76;;
48148;Laerm;29352;48.708;9.290;2022-12-07T14:25:22;53.83;52.74;54.83;;
48148;Laerm;29352;48.708;9.290;2022-12-07T14:30:25;53.83;52.76;54.94;;
48148;Laerm;29352;48.708;9.290;2022-12-07T14:33:02;53.82;52.76;54.90;;
48148;Laerm;29352;48.708;9.290;2022-12-07T14:35:29;53.83;52.65;54.73;;
48148;Laerm;29352;48.708;9.290;2022-12-07T14:37:56;53.82;52.35;54.87;;
48148;Laerm;29352;48.708;9.290;2022-12-07T14:40:25;53.84;52.76;54.87;;
48148;Laerm;29352;48.708;9.290;2022-12-07T14:43:05;53.83;52.59;54.87;;
48148;Laerm;29352;48.708;9.290;2022-12-07T14:45:32;53.82;52.71;54.80;;
48148;Laerm;29352;48.708;9.290;2022-12-07T14:47:58;53.79;52.65;54.80;;
48148;Laerm;29352;48.708;9.290;2022-12-07T14:50:23;53.76;52.71;54.65;;
48148;Laerm;29352;48.708;9.290;2022-12-07T14:53:02;53.71;52.59;54.73;;
48148;Laerm;29352;48.708;9.290;2022-12-07T14:55:32;53.70;52.59;54.94;;
48148;Laerm;29352;48.708;9.290;2022-12-07T14:57:59;53.70;52.53;54.76;;
48148;Laerm;29352;48.708;9.290;2022-12-07T15:00:28;53.68;52.53;54.83;;
48148;Laerm;29352;48.708;9.290;2022-12-07T15:02:54;53.67;52.59;54.58;;
48148;Laerm;29352;48.708;9.290;2022-12-07T15:05:21;53.71;52.53;56.33;;
48148;Laerm;29352;48.708;9.290;2022-12-07T15:07:49;53.70;52.47;57.22;;
48148;Laerm;29352;48.708;9.290;2022-12-07T15:10:27;53.75;52.53;59.00;;
48148;Laerm;29352;48.708;9.290;2022-12-07T15:13:01;53.72;52.76;54.90;;
48148;Laerm;29352;48.708;9.290;2022-12-07T15:15:47;53.75;52.58;56.05;;
48148;Laerm;29352;48.708;9.290;2022-12-07T15:18:14;53.76;52.76;54.80;;
48148;Laerm;29352;48.708;9.290;2022-12-07T15:20:39;53.74;52.65;54.80;;
48148;Laerm;29352;48.708;9.290;2022-12-07T15:23:05;53.73;52.71;57.54;;
48148;Laerm;29352;48.708;9.290;2022-12-07T15:25:31;53.69;52.65;54.65;;
48148;Laerm;29352;48.708;9.290;2022-12-07T15:27:57;53.69;52.53;54.62;;
48148;Laerm;29352;48.708;9.290;2022-12-07T15:30:23;53.71;52.65;54.69;;
48148;Laerm;29352;48.708;9.290;2022-12-07T15:32:52;53.69;52.47;54.65;;
48148;Laerm;29352;48.708;9.290;2022-12-07T15:35:19;53.65;52.71;54.58;;
48148;Laerm;29352;48.708;9.290;2022-12-07T15:37:45;53.66;52.29;54.73;;
48148;Laerm;29352;48.708;9.290;2022-12-07T15:40:12;53.67;52.59;54.65;;
48148;Laerm;29352;48.708;9.290;2022-12-07T15:42:39;53.70;52.65;54.73;;
48148;Laerm;29352;48.708;9.290;2022-12-07T15:45:07;53.70;52.59;54.80;;
48148;Laerm;29352;48.708;9.290;2022-12-07T15:47:43;53.70;52.71;54.69;;
48148;Laerm;29352;48.708;9.290;2022-12-07T15:50:14;53.69;52.59;54.73;;